createdAt,value
2022-10-01T00:02:08.124Z,8.77
2022-10-01T00:04:37.793Z,8.71
2022-10-01T00:07:10.365Z,8.65
2022-10-01T00:09:38.576Z,8.71
2022-10-01T00:12:07.394Z,8.67
2022-10-01T00:14:39.024Z,8.66
2022-10-01T00:17:06.761Z,8.64
2022-10-01T00:19:34.472Z,8.60
2022-10-01T00:22:02.600Z,8.59
2022-10-01T00:24:30.307Z,8.57
2022-10-01T00:26:57.993Z,8.55
2022-10-01T00:29:25.720Z,8.53
2022-10-01T00:31:53.513Z,8.49
2022-10-01T00:34:21.298Z,8.43
2022-10-01T00:36:49.326Z,8.44
2022-10-01T00:39:17.030Z,8.42
2022-10-01T00:41:44.847Z,8.42
2022-10-01T00:44:35.404Z,8.38
2022-10-01T00:47:20.064Z,8.39
2022-10-01T00:49:50.628Z,8.36
2022-10-01T00:52:24.747Z,8.38
2022-10-01T00:55:04.039Z,8.39
2022-10-01T00:57:33.307Z,8.43
2022-10-01T01:00:05.950Z,8.35
2022-10-01T01:02:33.785Z,8.30
2022-10-01T01:05:02.139Z,8.27
2022-10-01T01:07:32.579Z,8.21
2022-10-01T01:10:01.886Z,8.17
2022-10-01T01:12:59.905Z,8.16
2022-10-01T01:15:46.495Z,8.17
2022-10-01T01:18:40.300Z,8.17
2022-10-01T01:21:55.145Z,8.11
2022-10-01T01:24:51.732Z,8.13
2022-10-01T01:27:40.922Z,8.08
2022-10-01T01:30:12.233Z,8.02
2022-10-01T01:33:05.938Z,8.01
2022-10-01T01:35:44.128Z,8.00
2022-10-01T01:38:20.361Z,8.03
2022-10-01T01:40:52.296Z,8.00
2022-10-01T01:43:31.205Z,7.96
2022-10-01T01:46:01.242Z,7.96
2022-10-01T01:48:31.986Z,7.95
2022-10-01T01:51:12.705Z,7.86
2022-10-01T01:53:41.036Z,7.81
2022-10-01T01:56:09.623Z,7.81
2022-10-01T01:58:39.252Z,7.80
2022-10-01T02:01:07.165Z,7.79
2022-10-01T02:03:35.428Z,7.79
2022-10-01T02:06:28.002Z,7.75
2022-10-01T02:09:19.738Z,7.68
2022-10-01T02:13:01.931Z,7.62
2022-10-01T02:16:04.373Z,7.57
2022-10-01T02:19:00.554Z,7.56
2022-10-01T02:21:57.180Z,7.59
2022-10-01T02:24:43.330Z,7.56
2022-10-01T02:27:25.701Z,7.52
2022-10-01T02:29:57.274Z,7.53
2022-10-01T02:32:26.853Z,7.46
2022-10-01T02:34:54.961Z,7.43
2022-10-01T02:37:26.005Z,7.41
2022-10-01T02:39:57.467Z,7.38
2022-10-01T02:42:29.026Z,7.37
2022-10-01T02:45:02.425Z,7.37
2022-10-01T02:48:09.045Z,7.35
2022-10-01T02:50:53.418Z,7.36
2022-10-01T02:53:40.766Z,7.32
2022-10-01T02:56:10.253Z,7.28
2022-10-01T02:58:37.972Z,7.26
2022-10-01T03:01:06.242Z,7.25
2022-10-01T03:03:33.991Z,7.28
2022-10-01T03:06:01.720Z,7.28
2022-10-01T03:08:29.418Z,7.25
2022-10-01T03:10:57.153Z,7.26
2022-10-01T03:13:25.266Z,7.25
2022-10-01T03:15:53.039Z,7.22
2022-10-01T03:18:20.778Z,7.22
2022-10-01T03:20:48.449Z,7.20
2022-10-01T03:23:16.245Z,7.18
2022-10-01T03:25:43.932Z,7.19
2022-10-01T03:28:12.489Z,7.23
2022-10-01T03:30:40.243Z,7.21
2022-10-01T03:33:08.030Z,7.19
2022-10-01T03:35:35.702Z,7.22
2022-10-01T03:38:03.442Z,7.26
2022-10-01T03:40:33.337Z,7.22
2022-10-01T03:43:01.070Z,7.29
2022-10-01T03:45:28.893Z,7.27
2022-10-01T03:47:56.580Z,7.26
2022-10-01T03:50:24.251Z,7.26
2022-10-01T03:52:51.948Z,7.28
2022-10-01T03:55:19.594Z,7.25
2022-10-01T03:57:47.577Z,7.23
2022-10-01T04:00:15.372Z,7.26
2022-10-01T04:02:43.419Z,7.23
2022-10-01T04:05:12.333Z,7.23
2022-10-01T04:07:42.683Z,7.23
2022-10-01T04:10:10.401Z,7.23
2022-10-01T04:12:38.289Z,7.25
2022-10-01T04:15:06.482Z,7.23
2022-10-01T04:17:34.274Z,7.27
2022-10-01T04:20:02.119Z,7.25
2022-10-01T04:22:30.290Z,7.22
2022-10-01T04:24:57.972Z,7.21
2022-10-01T04:27:26.215Z,7.22
2022-10-01T04:29:53.892Z,7.18
2022-10-01T04:32:22.157Z,7.16
2022-10-01T04:34:52.863Z,7.19
2022-10-01T04:37:21.613Z,7.20
2022-10-01T04:39:49.758Z,7.17
2022-10-01T04:42:17.703Z,7.19
2022-10-01T04:44:45.394Z,7.22
2022-10-01T04:47:13.281Z,7.18
2022-10-01T04:49:41.024Z,7.13
2022-10-01T04:52:08.711Z,7.11
2022-10-01T04:54:36.394Z,7.13
2022-10-01T04:57:04.098Z,7.13
2022-10-01T04:59:32.698Z,7.14
2022-10-01T05:02:00.461Z,7.12
2022-10-01T05:04:28.315Z,7.19
2022-10-01T05:06:56.273Z,7.20
2022-10-01T05:09:24.075Z,7.17
2022-10-01T05:11:52.123Z,7.22
2022-10-01T05:14:22.779Z,7.20
2022-10-01T05:16:50.618Z,7.18
2022-10-01T05:19:18.487Z,7.24
2022-10-01T05:21:46.377Z,7.27
2022-10-01T05:24:15.215Z,7.31
2022-10-01T05:26:42.924Z,7.33
2022-10-01T05:29:11.345Z,7.35
2022-10-01T05:31:42.000Z,7.37
2022-10-01T05:34:10.588Z,7.41
2022-10-01T05:36:38.434Z,7.48
2022-10-01T05:39:06.084Z,7.51
2022-10-01T05:41:34.056Z,7.53
2022-10-01T05:44:02.934Z,7.57
2022-10-01T05:46:31.925Z,7.66
2022-10-01T05:48:59.624Z,7.70
2022-10-01T05:51:27.657Z,7.65
2022-10-01T05:53:59.005Z,7.66
2022-10-01T05:56:26.748Z,7.71
2022-10-01T05:58:55.056Z,7.78
2022-10-01T06:01:22.776Z,7.81
2022-10-01T06:03:52.341Z,7.84
2022-10-01T06:06:27.373Z,7.86
2022-10-01T06:08:55.156Z,7.90
2022-10-01T06:11:24.117Z,7.97
2022-10-01T06:13:52.535Z,8.03
2022-10-01T06:16:20.968Z,8.10
2022-10-01T06:18:49.486Z,8.12
2022-10-01T06:21:17.219Z,8.22
2022-10-01T06:23:45.738Z,8.24
2022-10-01T06:26:13.481Z,8.31
2022-10-01T06:28:41.261Z,8.37
2022-10-01T06:31:08.928Z,8.44
2022-10-01T06:33:37.137Z,8.52
2022-10-01T06:36:05.183Z,8.58
2022-10-01T06:38:33.137Z,8.66
2022-10-01T06:41:02.404Z,8.73
2022-10-01T06:43:31.715Z,8.82
2022-10-01T06:46:04.699Z,8.91
2022-10-01T06:48:32.808Z,8.99
2022-10-01T06:51:00.549Z,9.06
2022-10-01T06:53:29.030Z,9.14
2022-10-01T06:55:57.136Z,9.20
2022-10-01T06:58:28.306Z,9.27
2022-10-01T07:01:02.042Z,9.35
2022-10-01T07:03:31.428Z,9.46
2022-10-01T07:06:05.543Z,9.54
2022-10-01T07:08:33.523Z,9.63
2022-10-01T07:11:02.953Z,9.70
2022-10-01T07:13:30.988Z,9.78
2022-10-01T07:15:58.715Z,9.87
2022-10-01T07:18:26.986Z,9.97
2022-10-01T07:20:59.473Z,10.09
2022-10-01T07:23:27.196Z,10.23
2022-10-01T07:25:55.178Z,10.30
2022-10-01T07:28:25.761Z,10.36
2022-10-01T07:31:02.091Z,10.45
2022-10-01T07:33:29.979Z,10.55
2022-10-01T07:36:04.210Z,10.67
2022-10-01T07:38:33.606Z,10.76
2022-10-01T07:41:03.286Z,10.86
2022-10-01T07:43:33.215Z,11.02
2022-10-01T07:46:01.961Z,11.13
2022-10-01T07:48:30.961Z,11.21
2022-10-01T07:50:58.652Z,11.27
2022-10-01T07:53:27.457Z,11.40
2022-10-01T07:55:55.446Z,11.53
2022-10-01T07:58:24.288Z,11.63
2022-10-01T08:00:56.111Z,11.71
2022-10-01T08:03:25.452Z,11.83
2022-10-01T08:05:53.618Z,11.97
2022-10-01T08:08:21.539Z,12.10
2022-10-01T08:10:50.635Z,12.26
2022-10-01T08:13:18.933Z,12.54
2022-10-01T08:15:53.555Z,12.77
2022-10-01T08:18:23.558Z,12.89
2022-10-01T08:20:52.423Z,13.12
2022-10-01T08:23:21.385Z,13.19
2022-10-01T08:25:49.159Z,13.32
2022-10-01T08:28:17.212Z,13.41
2022-10-01T08:30:45.163Z,13.49
2022-10-01T08:33:14.535Z,13.54
2022-10-01T08:35:43.710Z,13.59
2022-10-01T08:38:12.969Z,13.66
2022-10-01T08:40:46.466Z,13.70
2022-10-01T08:43:38.664Z,13.72
2022-10-01T08:46:17.906Z,13.72
2022-10-01T08:49:31.781Z,13.75
2022-10-01T08:52:13.238Z,13.80
2022-10-01T08:54:56.896Z,13.80
2022-10-01T08:57:31.258Z,13.80
2022-10-01T09:00:04.066Z,13.83
2022-10-01T09:02:37.984Z,13.93
2022-10-01T09:05:24.845Z,14.08
2022-10-01T09:08:43.715Z,14.19
2022-10-01T09:11:44.752Z,14.29
2022-10-01T09:14:54.886Z,14.43
2022-10-01T09:17:49.069Z,14.52
2022-10-01T09:20:32.856Z,14.60
2022-10-01T09:23:30.047Z,14.79
2022-10-01T09:25:59.994Z,15.06
2022-10-01T09:28:35.517Z,15.16
2022-10-01T09:31:06.481Z,15.38
2022-10-01T09:33:43.136Z,15.47
2022-10-01T09:36:45.044Z,15.52
2022-10-01T09:39:34.889Z,15.58
2022-10-01T09:42:03.583Z,15.60
2022-10-01T09:44:33.805Z,15.62
2022-10-01T09:47:01.621Z,15.68
2022-10-01T09:49:45.870Z,15.70
2022-10-01T09:52:39.683Z,15.71
2022-10-01T09:55:36.605Z,15.78
2022-10-01T09:58:20.801Z,15.83
2022-10-01T10:00:51.542Z,15.92
2022-10-01T10:03:27.308Z,16.01
2022-10-01T10:05:55.615Z,16.18
2022-10-01T10:08:31.815Z,16.20
2022-10-01T10:11:11.727Z,16.21
2022-10-01T10:13:42.428Z,16.14
2022-10-01T10:16:26.452Z,16.07
2022-10-01T10:19:02.263Z,16.06
2022-10-01T10:21:34.883Z,15.98
2022-10-01T10:24:06.498Z,16.00
2022-10-01T10:26:39.359Z,16.08
2022-10-01T10:29:24.962Z,16.07
2022-10-01T10:31:55.517Z,16.00
2022-10-01T10:34:41.054Z,16.11
2022-10-01T10:37:20.137Z,16.20
2022-10-01T10:39:52.311Z,15.95
2022-10-01T10:42:22.660Z,15.99
2022-10-01T10:44:54.877Z,15.93
2022-10-01T10:47:24.340Z,15.95
2022-10-01T10:49:57.785Z,15.95
2022-10-01T10:52:36.078Z,16.03
2022-10-01T10:55:21.553Z,15.98
2022-10-01T10:57:49.325Z,16.11
2022-10-01T11:00:21.532Z,16.18
2022-10-01T11:03:06.174Z,16.15
2022-10-01T11:05:41.662Z,16.14
2022-10-01T11:08:20.534Z,16.14
2022-10-01T11:11:13.829Z,16.19
2022-10-01T11:14:08.368Z,16.25
2022-10-01T11:17:05.856Z,16.26
2022-10-01T11:20:20.790Z,16.31
2022-10-01T11:23:36.625Z,16.44
2022-10-01T11:26:26.972Z,16.47
2022-10-01T11:29:29.686Z,16.53
2022-10-01T11:32:25.032Z,16.70
2022-10-01T11:35:18.728Z,16.66
2022-10-01T11:38:23.403Z,16.65
2022-10-01T11:40:57.983Z,16.74
2022-10-01T11:43:39.001Z,16.69
2022-10-01T11:46:32.822Z,16.70
2022-10-01T11:49:27.933Z,16.73
2022-10-01T11:52:27.516Z,16.71
2022-10-01T11:55:40.432Z,16.53
2022-10-01T11:58:54.697Z,16.67
2022-10-01T12:01:49.266Z,16.63
2022-10-01T12:05:08.841Z,16.75
2022-10-01T12:07:54.082Z,16.85
2022-10-01T12:10:47.774Z,16.96
2022-10-01T12:13:15.895Z,16.91
2022-10-01T12:15:58.004Z,16.98
2022-10-01T12:18:36.747Z,17.13
2022-10-01T12:21:18.471Z,17.31
2022-10-01T12:23:58.092Z,17.39
2022-10-01T12:27:07.731Z,17.29
2022-10-01T12:29:52.624Z,17.32
2022-10-01T12:32:48.595Z,17.32
2022-10-01T12:35:47.468Z,17.03
2022-10-01T12:38:40.748Z,16.94
2022-10-01T12:41:44.699Z,16.88
2022-10-01T12:44:26.565Z,16.82
2022-10-01T12:47:39.536Z,16.65
2022-10-01T12:50:19.638Z,16.63
2022-10-01T12:53:05.540Z,16.66
2022-10-01T12:55:52.347Z,16.64
2022-10-01T12:58:54.590Z,16.61
2022-10-01T13:01:56.933Z,16.63
2022-10-01T13:04:56.734Z,16.60
2022-10-01T13:08:02.516Z,16.57
2022-10-01T13:11:09.062Z,16.63
2022-10-01T13:13:38.652Z,16.69
2022-10-01T13:16:32.307Z,16.73
2022-10-01T13:19:20.481Z,16.78
2022-10-01T13:22:18.578Z,16.66
2022-10-01T13:25:19.432Z,16.75
2022-10-01T13:28:03.533Z,16.72
2022-10-01T13:30:49.463Z,16.72
2022-10-01T13:33:25.387Z,16.79
2022-10-01T13:36:02.162Z,16.86
2022-10-01T13:38:47.531Z,16.86
2022-10-01T13:41:25.587Z,16.89
2022-10-01T13:44:04.226Z,16.92
2022-10-01T13:46:47.545Z,16.85
2022-10-01T13:49:22.261Z,16.79
2022-10-01T13:51:52.574Z,16.74
2022-10-01T13:54:39.773Z,16.57
2022-10-01T13:57:36.220Z,16.44
2022-10-01T14:00:23.376Z,16.31
2022-10-01T14:03:42.105Z,16.14
2022-10-01T14:06:35.252Z,16.06
2022-10-01T14:09:35.337Z,16.10
2022-10-01T14:12:40.904Z,16.12
2022-10-01T14:15:57.796Z,16.03
2022-10-01T14:18:42.742Z,15.87
2022-10-01T14:21:49.762Z,15.79
2022-10-01T14:24:49.170Z,15.68
2022-10-01T14:27:47.495Z,15.62
2022-10-01T14:30:23.476Z,15.61
2022-10-01T14:33:43.140Z,15.55
2022-10-01T14:36:40.947Z,15.34
2022-10-01T14:39:25.877Z,15.04
2022-10-01T14:41:56.463Z,14.83
2022-10-01T14:44:28.908Z,14.63
2022-10-01T14:46:59.693Z,14.38
2022-10-01T14:49:31.971Z,14.16
2022-10-01T14:52:17.553Z,13.94
2022-10-01T14:55:08.106Z,13.72
2022-10-01T14:57:43.913Z,13.54
2022-10-01T15:00:22.617Z,13.45
2022-10-01T15:03:15.205Z,13.34
2022-10-01T15:05:46.277Z,13.22
2022-10-01T15:08:33.091Z,13.26
2022-10-01T15:11:08.073Z,13.27
2022-10-01T15:13:40.116Z,13.22
2022-10-01T15:16:17.917Z,13.15
2022-10-01T15:18:53.480Z,13.06
2022-10-01T15:21:30.926Z,13.14
2022-10-01T15:23:59.463Z,13.17
2022-10-01T15:26:28.146Z,13.17
2022-10-01T15:29:12.487Z,13.17
2022-10-01T15:31:41.402Z,13.14
2022-10-01T15:34:16.557Z,13.04
2022-10-01T15:36:45.985Z,12.98
2022-10-01T15:39:35.486Z,12.84
2022-10-01T15:42:28.169Z,12.79
2022-10-01T15:45:08.075Z,12.77
2022-10-01T15:47:38.344Z,12.73
2022-10-01T15:50:34.392Z,12.73
2022-10-01T15:53:21.341Z,12.64
2022-10-01T15:55:56.922Z,12.60
2022-10-01T15:58:34.987Z,12.53
2022-10-01T16:01:09.257Z,12.48
2022-10-01T16:03:42.223Z,12.41
2022-10-01T16:06:18.923Z,12.43
2022-10-01T16:09:19.317Z,12.44
2022-10-01T16:11:52.839Z,12.42
2022-10-01T16:14:33.047Z,12.39
2022-10-01T16:17:19.566Z,12.37
2022-10-01T16:19:53.713Z,12.37
2022-10-01T16:22:44.425Z,12.35
2022-10-01T16:25:19.579Z,12.37
2022-10-01T16:27:50.860Z,12.38
2022-10-01T16:30:29.637Z,12.41
2022-10-01T16:33:02.316Z,12.40
2022-10-01T16:35:35.670Z,12.38
2022-10-01T16:38:08.274Z,12.43
2022-10-01T16:40:42.361Z,12.39
2022-10-01T16:43:25.031Z,12.42
2022-10-01T16:45:53.311Z,12.41
2022-10-01T16:48:24.895Z,12.44
2022-10-01T16:50:53.822Z,12.46
2022-10-01T16:53:24.601Z,12.44
2022-10-01T16:55:52.872Z,12.43
2022-10-01T16:58:21.773Z,12.45
2022-10-01T17:00:49.981Z,12.47
2022-10-01T17:03:20.991Z,12.46
2022-10-01T17:05:49.896Z,12.46
2022-10-01T17:08:17.696Z,12.42
2022-10-01T17:10:58.328Z,12.40
2022-10-01T17:13:31.291Z,12.37
2022-10-01T17:16:01.200Z,12.39
2022-10-01T17:18:29.301Z,12.33
2022-10-01T17:20:57.218Z,12.37
2022-10-01T17:23:25.281Z,12.39
2022-10-01T17:25:53.170Z,12.41
2022-10-01T17:28:21.608Z,12.36
2022-10-01T17:30:49.742Z,12.29
2022-10-01T17:33:19.455Z,12.19
2022-10-01T17:35:52.063Z,12.11
2022-10-01T17:38:21.012Z,12.06
2022-10-01T17:40:55.491Z,12.04
2022-10-01T17:43:24.795Z,11.98
2022-10-01T17:46:00.957Z,11.98
2022-10-01T17:48:29.957Z,11.97
2022-10-01T17:51:09.746Z,11.94
2022-10-01T17:53:42.120Z,11.93
2022-10-01T17:56:16.973Z,11.95
2022-10-01T17:58:46.139Z,11.92
2022-10-01T18:01:19.661Z,11.90
2022-10-01T18:03:51.799Z,11.92
2022-10-01T18:06:19.600Z,11.93
2022-10-01T18:08:56.266Z,11.91
2022-10-01T18:11:28.189Z,11.86
2022-10-01T18:13:56.557Z,11.87
2022-10-01T18:16:25.478Z,11.89
2022-10-01T18:21:50.968Z,11.87
2022-10-01T18:24:18.720Z,11.86
2022-10-01T18:26:46.654Z,11.82
2022-10-01T18:29:21.087Z,11.81
2022-10-01T18:32:17.666Z,11.83
2022-10-01T18:34:54.484Z,11.85
2022-10-01T18:37:40.013Z,11.83
2022-10-01T18:40:20.001Z,11.82
2022-10-01T18:43:07.381Z,11.84
2022-10-01T18:46:00.424Z,11.84
2022-10-01T18:49:05.302Z,11.82
2022-10-01T18:51:55.061Z,11.82
2022-10-01T18:54:50.026Z,11.81
2022-10-01T18:57:44.193Z,11.79
2022-10-01T19:00:18.959Z,11.82
2022-10-01T19:03:25.656Z,11.83
2022-10-01T19:06:19.387Z,11.82
2022-10-01T19:08:56.656Z,11.88
2022-10-01T19:11:38.043Z,11.87
2022-10-01T19:14:39.950Z,11.86
2022-10-01T19:17:34.940Z,11.86
2022-10-01T19:20:46.354Z,11.90
2022-10-01T19:23:30.251Z,11.91
2022-10-01T19:26:34.326Z,11.93
2022-10-01T19:29:45.920Z,11.94
2022-10-01T19:32:30.315Z,11.95
2022-10-01T19:35:16.991Z,11.99
2022-10-01T19:37:51.516Z,12.01
2022-10-01T19:40:38.207Z,11.99
2022-10-01T19:43:41.440Z,12.01
2022-10-01T19:46:22.750Z,12.00
2022-10-01T19:49:01.706Z,11.97
2022-10-01T19:51:35.068Z,11.93
2022-10-01T19:54:03.810Z,11.93
2022-10-01T19:56:34.639Z,11.91
2022-10-01T19:59:11.768Z,11.87
2022-10-01T20:01:51.774Z,11.90
2022-10-01T20:04:30.565Z,11.92
2022-10-01T20:07:07.351Z,11.92
2022-10-01T20:09:50.978Z,11.89
2022-10-01T20:12:40.472Z,11.90
2022-10-01T20:15:21.038Z,11.93
2022-10-01T20:18:16.394Z,11.91
2022-10-01T20:21:15.401Z,11.93
2022-10-01T20:24:03.129Z,11.90
2022-10-01T20:26:43.868Z,11.91
2022-10-01T20:29:50.723Z,11.92
2022-10-01T20:32:56.335Z,11.90
2022-10-01T20:36:07.655Z,11.93
2022-10-01T20:38:48.614Z,11.97
2022-10-01T20:41:21.264Z,11.97
2022-10-01T20:43:58.668Z,11.96
2022-10-01T20:46:38.299Z,11.94
2022-10-01T20:49:29.910Z,11.93
2022-10-01T20:52:13.020Z,11.90
2022-10-01T20:54:47.356Z,11.94
2022-10-01T20:57:31.330Z,11.95
2022-10-01T21:00:31.083Z,11.96
2022-10-01T21:03:12.306Z,11.96
2022-10-01T21:05:50.768Z,11.96
2022-10-01T21:08:53.439Z,11.93
2022-10-01T21:11:35.905Z,11.95
2022-10-01T21:14:25.536Z,11.96
2022-10-01T21:17:30.771Z,11.99
2022-10-01T21:20:37.822Z,12.02
2022-10-01T21:24:01.626Z,12.04
2022-10-01T21:27:24.385Z,12.04
2022-10-01T21:30:12.364Z,11.99
2022-10-01T21:33:23.935Z,12.00
2022-10-01T21:36:10.887Z,11.95
2022-10-01T21:38:50.466Z,11.98
2022-10-01T21:41:30.363Z,12.01
2022-10-01T21:44:52.450Z,12.02
2022-10-01T21:47:58.764Z,11.99
2022-10-01T21:50:56.302Z,11.98
2022-10-01T21:53:52.964Z,11.97
2022-10-01T21:56:38.423Z,11.98
2022-10-01T21:59:28.989Z,11.92
2022-10-01T22:02:14.822Z,11.89
2022-10-01T22:04:54.238Z,11.88
2022-10-01T22:07:38.687Z,11.91
2022-10-01T22:10:31.695Z,11.92
2022-10-01T22:13:04.380Z,11.95
2022-10-01T22:15:44.664Z,11.96
2022-10-01T22:18:27.996Z,11.92
2022-10-01T22:20:59.184Z,11.97
2022-10-01T22:23:31.008Z,11.98
2022-10-01T22:26:05.975Z,12.00
2022-10-01T22:28:39.146Z,12.02
2022-10-01T22:31:15.990Z,12.04
2022-10-01T22:33:52.546Z,12.02
2022-10-01T22:36:38.687Z,12.05
2022-10-01T22:39:23.035Z,12.07
2022-10-01T22:42:20.873Z,12.06
2022-10-01T22:44:48.631Z,12.03
2022-10-01T22:47:38.189Z,12.00
2022-10-01T22:50:52.194Z,11.93
2022-10-01T22:54:01.594Z,11.88
2022-10-01T22:57:02.113Z,11.80
2022-10-01T22:59:43.525Z,11.79
2022-10-01T23:02:42.806Z,11.72
2022-10-01T23:05:45.925Z,11.72
2022-10-01T23:08:39.477Z,11.64
2022-10-01T23:11:36.275Z,11.62
2022-10-01T23:14:53.727Z,11.63
2022-10-01T23:18:10.140Z,11.69
2022-10-01T23:21:48.410Z,11.68
2022-10-01T23:24:32.138Z,11.60
2022-10-01T23:27:47.137Z,11.47
2022-10-01T23:30:20.059Z,11.54
2022-10-01T23:33:10.673Z,11.53
2022-10-01T23:35:52.967Z,11.50
2022-10-01T23:38:30.906Z,11.52
2022-10-01T23:41:09.886Z,11.53
2022-10-01T23:43:48.476Z,11.55
2022-10-01T23:46:27.325Z,11.58
2022-10-01T23:49:11.166Z,11.57
2022-10-01T23:51:48.673Z,11.59
2022-10-01T23:54:33.314Z,11.58
2022-10-01T23:57:14.632Z,11.61
